This is the latest recevied weather packets stored in our database for station/object K1LVA. If no packets are shown the sender has not sent any weather packets the latest 1 day(s).
| Time | Temp. | Humidity | Pressure | Rain* | Wind** | Luminosity | Snow |
|---|---|---|---|---|---|---|---|
| 1778033113 | 20° C | 72% | 1015.8 hPa | 0 mm | - | 0 W/m² | - |
| 1778032508 | 20.56° C | 71% | 1015.7 hPa | 0 mm | - | 0 W/m² | - |
| 1778031597 | 21.11° C | 70% | 1015.5 hPa | 0 mm | - | 0 W/m² | - |
| 1778031295 | 21.11° C | 70% | 1015.2 hPa | 0 mm | - | 0 W/m² | - |
| 1778030991 | 21.11° C | 70% | 1015.3 hPa | 0 mm | - | 0 W/m² | - |
| 1778030688 | 21.11° C | 70% | 1015.2 hPa | 0 mm | - | 0 W/m² | - |
| 1778030385 | 21.67° C | 69% | 1015.2 hPa | 0 mm | - | 0 W/m² | - |
| 1778029779 | 21.67° C | 69% | 1015 hPa | 0 mm | - | 0 W/m² | - |
| 1778029174 | 22.22° C | 67% | 1014.7 hPa | 0 mm | - | 0 W/m² | - |
| 1778028872 | 22.22° C | 65% | 1014.8 hPa | 0 mm | - | 0 W/m² | - |
| 1778028567 | 22.22° C | 64% | 1014.8 hPa | 0 mm | - | 0 W/m² | - |
| 1778027961 | 22.78° C | 59% | 1014.4 hPa | 0 mm | - | 0 W/m² | - |
| 1778027658 | 22.78° C | 58% | 1014.4 hPa | 0 mm | - | 0 W/m² | - |
| 1778025838 | 23.33° C | 50% | 1013.8 hPa | 0 mm | - | 6 W/m² | - |
| 1778024323 | 24.44° C | 50% | 1013.8 hPa | 0 mm | - | 29 W/m² | - |
| 1778019772 | 28.33° C | 41% | 1014.1 hPa | 0 mm | - | 226 W/m² | - |
| 1778019166 | 27.78° C | 40% | 1014.1 hPa | 0 mm | - | 259 W/m² | - |
| 1778018560 | 26.11° C | 42% | 1014.3 hPa | 0 mm | - | 286 W/m² | - |
| 1778014623 | 26.67° C | 44% | 1014.5 hPa | 0 mm | - | 166 W/m² | - |
| 1778014321 | 26.67° C | 43% | 1014.8 hPa | 0 mm | - | 164 W/m² | - |
| 1778012191 | 26.67° C | 44% | 1015 hPa | 0 mm | - | 647 W/m² | - |
| 1778011889 | 27.22° C | 43% | 1014.8 hPa | 0 mm | - | 663 W/m² | - |
* Rain latest hour (hover to see other rain measurements)
** Current wind speed in m/s (hover to see current wind gust speed)